createdAt,value
2022-08-17T00:00:43.570Z,64.04
2022-08-17T00:03:10.859Z,64.24
2022-08-17T00:05:44.369Z,64.11
2022-08-17T00:08:15.289Z,64.52
2022-08-17T00:10:44.035Z,64.71
2022-08-17T00:13:14.948Z,64.95
2022-08-17T00:15:41.939Z,64.50
2022-08-17T00:19:01.195Z,64.48
2022-08-17T00:20:56.650Z,65.04
2022-08-17T00:23:24.763Z,64.98
2022-08-17T00:25:52.857Z,64.87
2022-08-17T00:28:20.937Z,65.29
2022-08-17T00:30:51.305Z,65.47
2022-08-17T00:33:27.548Z,65.57
2022-08-17T00:35:56.037Z,65.64
2022-08-17T00:38:24.600Z,65.62
2022-08-17T00:40:59.252Z,65.79
2022-08-17T00:43:34.406Z,65.54
2022-08-17T00:46:14.017Z,65.57
2022-08-17T00:48:42.175Z,66.09
2022-08-17T00:51:39.509Z,65.47
2022-08-17T00:54:20.249Z,65.84
2022-08-17T00:57:09.956Z,65.87
2022-08-17T01:00:16.259Z,65.81
2022-08-17T01:02:48.337Z,65.80
2022-08-17T01:05:20.607Z,66.02
2022-08-17T01:07:48.718Z,66.47
2022-08-17T01:10:58.840Z,65.80
2022-08-17T01:13:11.911Z,66.50
2022-08-17T01:15:49.334Z,66.11
2022-08-17T01:18:16.756Z,65.62
2022-08-17T01:20:54.185Z,65.97
2022-08-17T01:23:24.592Z,66.06
2022-08-17T01:26:03.037Z,66.21
2022-08-17T01:28:33.508Z,65.74
2022-08-17T01:31:20.382Z,65.79
2022-08-17T01:33:47.758Z,66.28
2022-08-17T01:36:14.996Z,65.94
2022-08-17T01:38:44.944Z,66.29
2022-08-17T01:41:14.986Z,65.80
2022-08-17T01:43:51.172Z,66.28
2022-08-17T01:46:27.247Z,66.20
2022-08-17T01:48:55.683Z,65.59
2022-08-17T01:51:23.274Z,65.76
2022-08-17T01:53:54.865Z,65.62
2022-08-17T01:56:24.226Z,65.81
2022-08-17T01:58:52.445Z,66.04
2022-08-17T02:01:24.491Z,66.24
2022-08-17T02:03:56.156Z,66.67
2022-08-17T02:06:52.511Z,66.57
2022-08-17T02:09:18.826Z,67.06
2022-08-17T02:11:50.726Z,66.58
2022-08-17T02:14:18.126Z,66.92
2022-08-17T02:16:46.182Z,67.20
2022-08-17T02:19:16.812Z,67.42
2022-08-17T02:21:48.196Z,66.97
2022-08-17T02:24:58.271Z,66.76
2022-08-17T02:27:17.051Z,67.21
2022-08-17T02:29:44.524Z,67.26
2022-08-17T02:32:27.229Z,67.52
2022-08-17T02:34:54.972Z,67.46
2022-08-17T02:37:22.138Z,67.44
2022-08-17T02:39:49.203Z,67.16
2022-08-17T02:42:16.420Z,68.00
2022-08-17T02:44:43.739Z,67.99
2022-08-17T02:47:12.824Z,67.99
2022-08-17T02:49:39.859Z,68.59
2022-08-17T02:52:07.811Z,69.23
2022-08-17T02:54:40.775Z,69.38
2022-08-17T02:57:10.500Z,69.64
2022-08-17T02:59:39.613Z,69.63
2022-08-17T03:02:10.297Z,69.90
2022-08-17T03:04:37.702Z,69.88
2022-08-17T03:07:05.802Z,70.10
2022-08-17T03:09:36.100Z,70.42
2022-08-17T03:12:13.010Z,70.78
2022-08-17T03:14:43.392Z,70.94
2022-08-17T03:17:17.114Z,70.73
2022-08-17T03:19:44.862Z,70.46
2022-08-17T03:22:35.914Z,70.81
2022-08-17T03:24:59.146Z,70.65
2022-08-17T03:27:27.725Z,70.89
2022-08-17T03:29:55.307Z,70.90
2022-08-17T03:32:22.431Z,71.37
2022-08-17T03:34:49.501Z,71.33
2022-08-17T03:37:17.678Z,71.28
2022-08-17T03:39:47.638Z,71.83
2022-08-17T03:42:31.804Z,71.72
2022-08-17T03:45:03.786Z,72.24
2022-08-17T03:47:49.721Z,71.82
2022-08-17T03:50:38.542Z,72.00
2022-08-17T03:53:35.087Z,72.58
2022-08-17T03:56:24.453Z,72.48
2022-08-17T03:58:52.591Z,72.81
2022-08-17T04:01:19.845Z,72.83
2022-08-17T04:03:46.910Z,72.50
2022-08-17T04:06:16.650Z,73.39
2022-08-17T04:08:43.863Z,73.23
2022-08-17T04:11:15.248Z,73.27
2022-08-17T04:13:42.847Z,72.98
2022-08-17T04:16:10.058Z,73.37
2022-08-17T04:18:37.292Z,73.17
2022-08-17T04:21:04.408Z,73.29
2022-08-17T04:23:35.044Z,73.67
2022-08-17T04:26:05.980Z,73.13
2022-08-17T04:28:34.155Z,74.03
2022-08-17T04:31:01.179Z,74.13
2022-08-17T04:33:30.123Z,73.91
2022-08-17T04:36:00.924Z,73.61
2022-08-17T04:38:36.642Z,74.03
2022-08-17T04:41:23.591Z,73.93
2022-08-17T04:43:55.148Z,73.63
2022-08-17T04:46:35.434Z,73.63
2022-08-17T04:49:10.362Z,74.16
2022-08-17T04:51:54.442Z,73.93
2022-08-17T04:54:23.512Z,74.30
2022-08-17T04:56:50.662Z,74.52
2022-08-17T04:59:21.485Z,74.63
2022-08-17T05:01:55.027Z,74.91
2022-08-17T05:04:34.137Z,75.33
2022-08-17T05:07:04.436Z,75.15
2022-08-17T05:09:31.866Z,75.37
2022-08-17T05:12:02.565Z,75.76
2022-08-17T05:14:33.606Z,75.56
2022-08-17T05:17:14.381Z,75.86
2022-08-17T05:19:41.909Z,75.98
2022-08-17T05:22:09.272Z,76.20
2022-08-17T05:24:42.633Z,76.26
2022-08-17T05:27:16.772Z,75.95
2022-08-17T05:29:51.347Z,76.19
2022-08-17T05:32:37.868Z,76.27
2022-08-17T05:35:11.241Z,75.68
2022-08-17T05:37:39.319Z,76.34
2022-08-17T05:40:10.569Z,75.96
2022-08-17T05:42:37.767Z,76.32
2022-08-17T05:45:05.968Z,76.62
2022-08-17T05:47:43.807Z,76.71
2022-08-17T05:50:27.015Z,76.83
2022-08-17T05:53:35.722Z,76.85
2022-08-17T05:56:34.342Z,77.25
2022-08-17T05:59:28.850Z,77.36
2022-08-17T06:02:03.200Z,77.22
2022-08-17T06:05:15.745Z,76.85
2022-08-17T06:08:18.028Z,76.87
2022-08-17T06:11:20.424Z,76.78
2022-08-17T06:14:25.953Z,76.64
2022-08-17T06:17:05.001Z,76.56
2022-08-17T06:19:48.415Z,76.33
2022-08-17T06:22:19.279Z,76.26
2022-08-17T06:24:54.353Z,75.93
2022-08-17T06:27:43.927Z,76.10
2022-08-17T06:30:26.099Z,75.48
2022-08-17T06:33:03.938Z,75.95
2022-08-17T06:35:57.557Z,76.28
2022-08-17T06:39:20.762Z,75.94
2022-08-17T06:43:02.111Z,76.72
2022-08-17T06:45:44.020Z,76.36
2022-08-17T06:48:25.148Z,76.73
2022-08-17T06:51:40.956Z,77.04
2022-08-17T06:54:45.936Z,77.37
2022-08-17T06:57:26.900Z,77.29
2022-08-17T07:00:13.812Z,76.41
2022-08-17T07:02:59.656Z,76.43
2022-08-17T07:05:52.440Z,76.34
2022-08-17T07:08:42.789Z,76.11
2022-08-17T07:11:27.772Z,76.34
2022-08-17T07:14:23.727Z,75.99
2022-08-17T07:16:58.742Z,75.65
2022-08-17T07:19:31.741Z,75.54
2022-08-17T07:22:55.230Z,75.42
2022-08-17T07:25:33.620Z,75.83
2022-08-17T07:28:07.071Z,76.15
2022-08-17T07:30:46.905Z,75.84
2022-08-17T07:33:21.478Z,75.71
2022-08-17T07:35:50.131Z,75.59
2022-08-17T07:38:26.971Z,75.36
2022-08-17T07:40:58.129Z,75.18
2022-08-17T07:43:39.271Z,75.15
2022-08-17T07:46:53.065Z,74.98
2022-08-17T07:49:39.648Z,75.33
2022-08-17T07:52:47.725Z,75.41
2022-08-17T07:54:57.111Z,75.26
2022-08-17T07:57:34.097Z,75.53
2022-08-17T08:00:01.479Z,75.06
2022-08-17T08:02:39.261Z,74.84
2022-08-17T08:05:49.140Z,74.97
2022-08-17T08:08:42.777Z,74.99
2022-08-17T08:11:15.653Z,75.11
2022-08-17T08:13:45.808Z,75.09
2022-08-17T08:16:29.746Z,75.09
2022-08-17T08:19:02.055Z,75.18
2022-08-17T08:21:54.951Z,75.17
2022-08-17T08:25:12.506Z,75.74
2022-08-17T08:28:10.354Z,75.62
2022-08-17T08:30:48.648Z,75.72
2022-08-17T08:33:44.808Z,75.92
2022-08-17T08:37:17.143Z,76.25
2022-08-17T08:40:13.266Z,75.72
2022-08-17T08:43:10.182Z,75.65
2022-08-17T08:45:58.420Z,75.83
2022-08-17T08:48:56.511Z,76.25
2022-08-17T08:51:46.757Z,75.62
2022-08-17T08:54:20.247Z,75.91
2022-08-17T08:57:44.527Z,75.64
2022-08-17T09:00:22.662Z,75.20
2022-08-17T09:03:11.257Z,75.70
2022-08-17T09:06:32.449Z,75.54
2022-08-17T09:09:25.640Z,75.28
2022-08-17T09:12:16.917Z,75.45
2022-08-17T09:15:12.973Z,75.31
2022-08-17T09:18:30.425Z,75.37
2022-08-17T09:21:04.282Z,75.38
2022-08-17T09:24:09.961Z,75.34
2022-08-17T09:26:49.067Z,74.98
2022-08-17T09:29:17.928Z,75.10
2022-08-17T09:32:05.374Z,75.29
2022-08-17T09:34:43.538Z,74.72
2022-08-17T09:37:49.462Z,75.03
2022-08-17T09:40:23.228Z,74.51
2022-08-17T09:43:35.163Z,74.44
2022-08-17T09:46:18.657Z,74.03
2022-08-17T09:49:03.851Z,74.15
2022-08-17T09:52:14.809Z,74.27
2022-08-17T09:54:48.134Z,74.08
2022-08-17T09:58:05.191Z,74.28
2022-08-17T10:00:39.881Z,74.32
2022-08-17T10:03:49.043Z,75.08
2022-08-17T10:06:22.097Z,74.77
2022-08-17T10:09:14.560Z,75.21
2022-08-17T10:12:12.231Z,74.98
2022-08-17T10:15:13.469Z,75.75
2022-08-17T10:18:18.057Z,75.68
2022-08-17T10:21:20.028Z,75.98
2022-08-17T10:25:21.453Z,75.73
2022-08-17T10:27:49.204Z,76.09
2022-08-17T10:30:27.086Z,75.93
2022-08-17T10:33:05.123Z,75.80
2022-08-17T10:36:19.450Z,76.48
2022-08-17T10:38:50.171Z,76.19
2022-08-17T10:41:45.005Z,76.19
2022-08-17T10:44:41.387Z,76.41
2022-08-17T10:47:19.573Z,75.82
2022-08-17T10:49:54.281Z,75.66
2022-08-17T10:52:25.056Z,75.91
2022-08-17T10:54:58.546Z,75.89
2022-08-17T10:57:34.683Z,76.71
2022-08-17T11:00:26.987Z,76.55
2022-08-17T11:03:00.325Z,76.44
2022-08-17T11:05:53.981Z,76.39
2022-08-17T11:08:45.108Z,75.81
2022-08-17T11:11:40.420Z,76.34
2022-08-17T11:14:53.044Z,76.04
2022-08-17T11:17:52.753Z,76.64
2022-08-17T11:20:52.871Z,76.32
2022-08-17T11:24:10.474Z,76.74
2022-08-17T11:26:39.090Z,76.21
2022-08-17T11:29:10.777Z,76.54
2022-08-17T11:31:43.420Z,75.76
2022-08-17T11:34:14.766Z,75.88
2022-08-17T11:37:01.882Z,75.11
2022-08-17T11:39:52.981Z,75.36
2022-08-17T11:42:36.558Z,75.05
2022-08-17T11:45:40.691Z,74.93
2022-08-17T11:48:55.866Z,74.73
2022-08-17T11:51:34.724Z,74.24
2022-08-17T11:57:29.441Z,73.41
2022-08-17T12:00:12.003Z,72.85
2022-08-17T12:02:48.080Z,72.43
2022-08-17T12:05:18.256Z,71.76
2022-08-17T12:08:11.198Z,71.25
2022-08-17T12:11:12.233Z,71.52
2022-08-17T12:13:48.749Z,71.30
2022-08-17T12:16:18.327Z,70.63
2022-08-17T12:19:02.935Z,70.99
2022-08-17T12:21:58.191Z,70.89
2022-08-17T12:25:10.894Z,71.10
2022-08-17T12:28:05.273Z,70.47
2022-08-17T12:30:39.397Z,70.72
2022-08-17T12:33:13.507Z,70.88
2022-08-17T12:36:05.120Z,70.84
2022-08-17T12:38:37.339Z,71.14
2022-08-17T12:41:28.898Z,70.58
2022-08-17T12:43:58.774Z,71.50
2022-08-17T12:46:25.829Z,71.18
2022-08-17T12:48:59.315Z,71.45
2022-08-17T12:51:30.435Z,71.17
2022-08-17T12:54:00.344Z,71.14
2022-08-17T12:56:28.515Z,70.92
2022-08-17T12:58:56.599Z,71.09
2022-08-17T13:01:24.971Z,71.12
2022-08-17T13:03:54.029Z,71.13
2022-08-17T13:06:32.501Z,70.91
2022-08-17T13:09:14.032Z,70.89
2022-08-17T13:11:49.572Z,70.63
2022-08-17T13:14:18.560Z,70.80
2022-08-17T13:16:51.014Z,70.88
2022-08-17T13:19:29.874Z,71.80
2022-08-17T13:22:11.807Z,72.34
2022-08-17T13:24:40.901Z,72.85
2022-08-17T13:27:10.351Z,72.69
2022-08-17T13:29:45.290Z,73.13
2022-08-17T13:32:23.021Z,73.35
2022-08-17T13:35:12.469Z,73.48
2022-08-17T13:38:03.370Z,73.07
2022-08-17T13:40:45.122Z,73.23
2022-08-17T13:43:12.329Z,73.15
2022-08-17T13:45:50.489Z,73.50
2022-08-17T13:48:32.171Z,73.47
2022-08-17T13:51:01.045Z,73.41
2022-08-17T13:53:37.473Z,73.07
2022-08-17T13:56:37.828Z,73.47
2022-08-17T13:59:07.263Z,73.35
2022-08-17T14:01:37.340Z,73.36
2022-08-17T14:04:10.178Z,73.45
2022-08-17T14:07:16.132Z,74.34
2022-08-17T14:09:54.999Z,73.89
2022-08-17T14:12:25.184Z,74.31
2022-08-17T14:14:55.052Z,74.28
2022-08-17T14:17:23.215Z,74.55
2022-08-17T14:19:51.275Z,74.78
2022-08-17T14:22:24.099Z,75.49
2022-08-17T14:24:53.899Z,75.10
2022-08-17T14:27:21.158Z,75.23
2022-08-17T14:29:48.280Z,75.72
2022-08-17T14:32:34.887Z,76.20
2022-08-17T14:35:04.719Z,76.29
2022-08-17T14:37:32.048Z,76.84
2022-08-17T14:40:00.719Z,76.88
2022-08-17T14:42:32.788Z,77.41
2022-08-17T14:45:01.811Z,77.70
2022-08-17T14:47:28.837Z,77.82
2022-08-17T14:49:56.037Z,77.35
2022-08-17T14:52:23.399Z,78.16
2022-08-17T14:54:53.037Z,78.23
2022-08-17T14:57:33.638Z,78.21
2022-08-17T15:00:03.031Z,78.83
2022-08-17T15:02:31.298Z,78.85
2022-08-17T15:05:05.831Z,79.01
2022-08-17T15:07:33.240Z,79.37
2022-08-17T15:10:02.265Z,79.14
2022-08-17T15:12:36.837Z,79.68
2022-08-17T15:15:06.355Z,79.47
2022-08-17T15:17:43.853Z,79.94
2022-08-17T15:20:30.009Z,79.47
2022-08-17T15:22:59.626Z,79.68
2022-08-17T15:25:32.076Z,79.60
2022-08-17T15:28:00.167Z,79.93
2022-08-17T15:30:30.033Z,80.20
2022-08-17T15:32:59.479Z,80.30
2022-08-17T15:35:32.895Z,79.99
2022-08-17T15:38:11.726Z,80.19
2022-08-17T15:40:46.818Z,80.10
2022-08-17T15:43:27.116Z,79.95
2022-08-17T15:46:18.118Z,80.33
2022-08-17T15:48:49.945Z,80.38
2022-08-17T15:51:40.022Z,80.17
2022-08-17T15:54:18.588Z,80.00
2022-08-17T15:56:49.890Z,80.07
2022-08-17T15:59:16.931Z,80.22
2022-08-17T16:02:21.520Z,80.34
2022-08-17T16:04:31.782Z,80.14
2022-08-17T16:07:00.183Z,80.48
2022-08-17T16:09:27.922Z,80.31
2022-08-17T16:11:56.566Z,79.98
2022-08-17T16:14:33.895Z,80.56
2022-08-17T16:17:05.564Z,80.10
2022-08-17T16:19:56.504Z,80.13
2022-08-17T16:22:36.957Z,79.67
2022-08-17T16:25:18.404Z,80.04
2022-08-17T16:27:46.624Z,80.10
2022-08-17T16:30:17.658Z,79.94
2022-08-17T16:32:45.260Z,79.73
2022-08-17T16:35:17.304Z,80.17
2022-08-17T16:37:48.331Z,79.84
2022-08-17T16:40:17.715Z,80.30
2022-08-17T16:42:48.075Z,80.27
2022-08-17T16:45:19.318Z,80.28
2022-08-17T16:47:50.220Z,80.21
2022-08-17T16:50:21.641Z,80.17
2022-08-17T16:52:48.992Z,79.76
2022-08-17T16:55:21.037Z,80.27
2022-08-17T16:57:50.382Z,79.92
2022-08-17T17:00:19.492Z,79.89
2022-08-17T17:02:49.538Z,80.09
2022-08-17T17:05:43.262Z,80.46
2022-08-17T17:08:33.750Z,80.33
2022-08-17T17:11:33.650Z,80.32
2022-08-17T17:14:10.660Z,80.56
2022-08-17T17:17:04.464Z,80.49
2022-08-17T17:19:41.478Z,80.35
2022-08-17T17:23:24.274Z,80.47
2022-08-17T17:26:15.409Z,80.31
2022-08-17T17:29:01.753Z,80.16
2022-08-17T17:31:38.577Z,80.11
2022-08-17T17:34:08.329Z,80.48
2022-08-17T17:36:45.912Z,79.66
2022-08-17T17:39:17.366Z,79.69
2022-08-17T17:41:59.263Z,79.89
2022-08-17T17:44:35.305Z,79.63
2022-08-17T17:47:04.567Z,79.71
2022-08-17T17:49:37.227Z,80.06
2022-08-17T17:52:47.625Z,79.79
2022-08-17T17:55:26.288Z,80.00
2022-08-17T17:58:27.028Z,80.13
2022-08-17T18:01:39.527Z,79.91
2022-08-17T18:04:28.500Z,79.89
2022-08-17T18:07:05.521Z,79.78
2022-08-17T18:10:01.629Z,79.87
2022-08-17T18:12:48.252Z,80.07
2022-08-17T18:15:52.764Z,79.86
2022-08-17T18:18:44.611Z,79.84
2022-08-17T18:21:27.790Z,79.77
2022-08-17T18:24:02.948Z,79.62
2022-08-17T18:26:55.483Z,79.62
2022-08-17T18:29:30.332Z,79.58
2022-08-17T18:32:25.825Z,79.42
2022-08-17T18:35:09.797Z,79.42
2022-08-17T18:37:46.690Z,79.79
2022-08-17T18:40:16.906Z,79.51
2022-08-17T18:42:50.503Z,79.68
2022-08-17T18:45:42.513Z,79.94
2022-08-17T18:48:30.141Z,79.60
2022-08-17T18:51:26.486Z,79.35
2022-08-17T18:54:21.842Z,79.78
2022-08-17T18:56:55.062Z,78.96
2022-08-17T18:59:45.044Z,79.10
2022-08-17T19:02:45.234Z,79.26
2022-08-17T19:05:13.755Z,79.62
2022-08-17T19:07:46.762Z,78.98
2022-08-17T19:10:28.982Z,79.21
2022-08-17T19:13:24.410Z,79.12
2022-08-17T19:16:27.923Z,78.96
2022-08-17T19:19:30.296Z,78.74
2022-08-17T19:22:28.789Z,78.75
2022-08-17T19:25:11.891Z,78.84
2022-08-17T19:27:51.318Z,78.50
2022-08-17T19:30:24.744Z,78.81
2022-08-17T19:32:53.229Z,78.76
2022-08-17T19:35:22.322Z,78.45
2022-08-17T19:38:03.120Z,78.17
2022-08-17T19:40:52.839Z,78.15
2022-08-17T19:43:37.147Z,78.88
2022-08-17T19:46:35.993Z,78.59
2022-08-17T19:49:47.319Z,78.37
2022-08-17T19:52:56.849Z,78.70
2022-08-17T19:56:15.699Z,78.43
2022-08-17T19:59:04.045Z,78.65
2022-08-17T20:01:53.229Z,78.13
2022-08-17T20:04:32.324Z,77.93
2022-08-17T20:07:08.545Z,77.79
2022-08-17T20:09:44.427Z,78.04
2022-08-17T20:12:16.883Z,78.02
2022-08-17T20:15:00.402Z,77.93
2022-08-17T20:17:41.895Z,78.08
2022-08-17T20:20:21.821Z,77.82
2022-08-17T20:23:15.090Z,78.35
2022-08-17T20:26:18.948Z,77.78
2022-08-17T20:29:14.791Z,77.65
2022-08-17T20:31:52.011Z,77.82
2022-08-17T20:34:39.903Z,77.55
2022-08-17T20:37:29.032Z,78.12
2022-08-17T20:39:57.252Z,77.80
2022-08-17T20:42:24.443Z,77.59
2022-08-17T20:44:58.529Z,77.88
2022-08-17T20:47:33.749Z,77.68
2022-08-17T20:50:28.896Z,77.66
2022-08-17T20:53:00.368Z,77.80
2022-08-17T20:55:51.982Z,77.56
2022-08-17T20:58:46.605Z,77.68
2022-08-17T21:01:20.478Z,77.62
2022-08-17T21:03:59.032Z,77.56
2022-08-17T21:06:28.808Z,77.72
2022-08-17T21:09:12.755Z,77.85
2022-08-17T21:12:03.461Z,77.93
2022-08-17T21:15:04.314Z,77.66
2022-08-17T21:18:13.179Z,77.86
2022-08-17T21:21:41.274Z,77.73
2022-08-17T21:24:21.760Z,77.38
2022-08-17T21:27:44.575Z,77.97
2022-08-17T21:30:28.362Z,77.66
2022-08-17T21:33:20.593Z,77.84
2022-08-17T21:35:49.622Z,77.87
2022-08-17T21:38:21.977Z,77.67
2022-08-17T21:40:53.076Z,77.60
2022-08-17T21:43:24.888Z,77.88
2022-08-17T21:45:59.342Z,77.83
2022-08-17T21:48:29.463Z,77.81
2022-08-17T21:51:13.893Z,77.79
2022-08-17T21:53:53.177Z,78.22
2022-08-17T21:56:36.723Z,77.96
2022-08-17T21:59:08.816Z,78.31
2022-08-17T22:01:40.248Z,78.18
2022-08-17T22:04:20.565Z,78.22
2022-08-17T22:06:56.509Z,78.17
2022-08-17T22:09:34.213Z,78.39
2022-08-17T22:12:07.598Z,78.36
2022-08-17T22:14:52.553Z,77.84
2022-08-17T22:17:46.520Z,77.74
2022-08-17T22:20:20.917Z,78.11
2022-08-17T22:23:13.661Z,78.33
2022-08-17T22:26:00.217Z,78.51
2022-08-17T22:28:40.590Z,77.97
2022-08-17T22:31:10.541Z,78.65
2022-08-17T22:33:48.094Z,77.99
2022-08-17T22:36:21.986Z,78.04
2022-08-17T22:38:58.755Z,78.03
2022-08-17T22:41:43.543Z,77.93
2022-08-17T22:44:19.815Z,78.21
2022-08-17T22:47:02.324Z,78.30
2022-08-17T22:49:53.487Z,78.16
2022-08-17T22:53:01.783Z,78.64
2022-08-17T22:55:52.822Z,78.49
2022-08-17T22:58:42.431Z,78.20
2022-08-17T23:01:33.442Z,78.17
2022-08-17T23:04:07.996Z,78.61
2022-08-17T23:06:37.249Z,78.24
2022-08-17T23:09:06.834Z,78.73
2022-08-17T23:11:48.920Z,78.92
2022-08-17T23:14:19.298Z,78.88
2022-08-17T23:16:50.513Z,78.93
2022-08-17T23:19:20.695Z,78.59
2022-08-17T23:21:48.747Z,79.18
2022-08-17T23:24:28.817Z,79.03
2022-08-17T23:26:58.291Z,78.69
2022-08-17T23:29:29.729Z,78.80
2022-08-17T23:31:57.985Z,79.11
2022-08-17T23:34:25.746Z,79.24
2022-08-17T23:36:53.373Z,79.32
2022-08-17T23:39:27.959Z,79.20
2022-08-17T23:41:57.926Z,79.14
2022-08-17T23:44:25.131Z,79.46
2022-08-17T23:46:53.058Z,79.63
2022-08-17T23:49:20.484Z,79.45
2022-08-17T23:51:48.724Z,79.22
2022-08-17T23:54:33.784Z,78.94
2022-08-17T23:57:02.347Z,79.79
2022-08-17T23:59:29.503Z,79.85
